sensor_id;sensor_type;location;lat;lon;timestamp;pressure;altitude;pressure_sealevel;temperature;humidity
46392;BME280;32098;49.448;7.904;2022-11-27T00:01:17;99327.97;;;3.27;84.68
46392;BME280;32098;49.448;7.904;2022-11-27T00:03:44;99321.03;;;3.26;85.24
46392;BME280;32098;49.448;7.904;2022-11-27T00:06:17;99315.06;;;3.24;85.47
46392;BME280;32098;49.448;7.904;2022-11-27T00:08:44;99311.59;;;3.24;86.37
46392;BME280;32098;49.448;7.904;2022-11-27T00:11:14;99308.34;;;3.30;86.15
46392;BME280;32098;49.448;7.904;2022-11-27T00:13:42;99308.09;;;3.15;87.62
46392;BME280;32098;49.448;7.904;2022-11-27T00:16:08;99306.66;;;3.21;88.45
46392;BME280;32098;49.448;7.904;2022-11-27T00:18:36;99295.47;;;3.27;87.82
46392;BME280;32098;49.448;7.904;2022-11-27T00:21:04;99277.47;;;3.22;88.30
46392;BME280;32098;49.448;7.904;2022-11-27T00:23:32;99300.97;;;3.33;87.60
46392;BME280;32098;49.448;7.904;2022-11-27T00:25:58;99298.78;;;3.29;88.53
46392;BME280;32098;49.448;7.904;2022-11-27T00:28:27;99290.72;;;3.30;87.96
46392;BME280;32098;49.448;7.904;2022-11-27T00:31:02;99293.00;;;3.25;87.75
46392;BME280;32098;49.448;7.904;2022-11-27T00:33:30;99296.19;;;3.37;88.34
46392;BME280;32098;49.448;7.904;2022-11-27T00:36:01;99293.72;;;3.35;88.28
46392;BME280;32098;49.448;7.904;2022-11-27T00:38:28;99284.59;;;3.30;88.37
46392;BME280;32098;49.448;7.904;2022-11-27T00:41:13;99280.56;;;3.18;88.68
46392;BME280;32098;49.448;7.904;2022-11-27T00:43:41;99279.56;;;3.19;88.83
46392;BME280;32098;49.448;7.904;2022-11-27T00:46:12;99275.44;;;3.16;89.30
46392;BME280;32098;49.448;7.904;2022-11-27T00:48:39;99274.34;;;3.27;89.10
46392;BME280;32098;49.448;7.904;2022-11-27T00:51:07;99266.00;;;3.14;89.17
46392;BME280;32098;49.448;7.904;2022-11-27T00:53:34;99272.38;;;3.29;89.22
46392;BME280;32098;49.448;7.904;2022-11-27T00:56:01;99271.72;;;3.27;88.64
46392;BME280;32098;49.448;7.904;2022-11-27T00:58:27;99263.78;;;3.27;88.79
46392;BME280;32098;49.448;7.904;2022-11-27T01:00:57;99270.38;;;2.97;90.21
46392;BME280;32098;49.448;7.904;2022-11-27T01:03:25;99257.47;;;2.86;91.33
46392;BME280;32098;49.448;7.904;2022-11-27T01:05:51;99261.19;;;3.01;90.72
46392;BME280;32098;49.448;7.904;2022-11-27T01:08:18;99253.88;;;2.95;90.85
46392;BME280;32098;49.448;7.904;2022-11-27T01:10:49;99264.75;;;3.18;90.28
46392;BME280;32098;49.448;7.904;2022-11-27T01:13:25;99253.53;;;3.24;89.63
46392;BME280;32098;49.448;7.904;2022-11-27T01:16:04;99256.88;;;3.26;89.69
46392;BME280;32098;49.448;7.904;2022-11-27T01:18:32;99245.63;;;3.24;89.55
46392;BME280;32098;49.448;7.904;2022-11-27T01:20:59;99261.50;;;3.32;89.44
46392;BME280;32098;49.448;7.904;2022-11-27T01:23:26;99257.56;;;3.36;89.17
46392;BME280;32098;49.448;7.904;2022-11-27T01:25:53;99262.03;;;3.35;88.25
46392;BME280;32098;49.448;7.904;2022-11-27T01:28:23;99272.75;;;3.42;88.57
46392;BME280;32098;49.448;7.904;2022-11-27T01:30:50;99272.16;;;3.48;88.34
46392;BME280;32098;49.448;7.904;2022-11-27T01:33:17;99263.22;;;3.49;87.97
46392;BME280;32098;49.448;7.904;2022-11-27T01:35:58;99253.00;;;3.46;87.44
46392;BME280;32098;49.448;7.904;2022-11-27T01:38:26;99258.09;;;3.47;87.28
46392;BME280;32098;49.448;7.904;2022-11-27T01:40:58;99259.94;;;3.55;86.93
46392;BME280;32098;49.448;7.904;2022-11-27T01:43:46;99251.03;;;3.48;87.10
46392;BME280;32098;49.448;7.904;2022-11-27T01:46:38;99248.53;;;3.46;87.05
46392;BME280;32098;49.448;7.904;2022-11-27T01:51:37;99247.38;;;3.49;87.75
46392;BME280;32098;49.448;7.904;2022-11-27T01:54:06;99223.59;;;3.41;87.34
46392;BME280;32098;49.448;7.904;2022-11-27T01:56:34;99261.59;;;3.48;86.75
46392;BME280;32098;49.448;7.904;2022-11-27T01:59:02;99261.28;;;3.51;87.86
46392;BME280;32098;49.448;7.904;2022-11-27T02:01:29;99267.34;;;3.52;86.64
46392;BME280;32098;49.448;7.904;2022-11-27T02:03:58;99263.22;;;3.41;86.91
46392;BME280;32098;49.448;7.904;2022-11-27T02:06:24;99261.91;;;3.45;86.52
46392;BME280;32098;49.448;7.904;2022-11-27T02:08:51;99258.59;;;3.43;86.31
46392;BME280;32098;49.448;7.904;2022-11-27T02:14:23;99263.56;;;3.46;86.31
46392;BME280;32098;49.448;7.904;2022-11-27T02:16:59;99272.97;;;3.49;86.29
46392;BME280;32098;49.448;7.904;2022-11-27T02:28:00;99235.19;;;3.48;86.62
46392;BME280;32098;49.448;7.904;2022-11-27T02:30:31;99242.34;;;3.30;86.23
46392;BME280;32098;49.448;7.904;2022-11-27T02:33:05;99230.97;;;3.29;86.61
46392;BME280;32098;49.448;7.904;2022-11-27T02:35:43;99226.44;;;3.14;86.57
46392;BME280;32098;49.448;7.904;2022-11-27T02:38:21;99224.56;;;3.06;87.10
46392;BME280;32098;49.448;7.904;2022-11-27T02:40:53;99225.59;;;3.05;88.04
46392;BME280;32098;49.448;7.904;2022-11-27T02:43:26;99222.63;;;3.08;87.47
46392;BME280;32098;49.448;7.904;2022-11-27T02:45:55;99209.88;;;2.96;87.90
46392;BME280;32098;49.448;7.904;2022-11-27T02:48:29;99218.13;;;3.01;88.03
46392;BME280;32098;49.448;7.904;2022-11-27T02:50:56;99215.69;;;3.07;87.69
46392;BME280;32098;49.448;7.904;2022-11-27T02:53:37;99208.75;;;3.06;87.89
46392;BME280;32098;49.448;7.904;2022-11-27T02:56:11;99207.81;;;3.15;87.33
46392;BME280;32098;49.448;7.904;2022-11-27T02:58:40;99207.81;;;3.15;86.65
46392;BME280;32098;49.448;7.904;2022-11-27T03:01:09;99197.38;;;3.06;87.58
46392;BME280;32098;49.448;7.904;2022-11-27T03:03:41;99201.19;;;3.11;87.01
46392;BME280;32098;49.448;7.904;2022-11-27T03:06:11;99202.00;;;3.12;86.79
46392;BME280;32098;49.448;7.904;2022-11-27T03:08:53;99189.78;;;3.03;87.32
46392;BME280;32098;49.448;7.904;2022-11-27T03:11:22;99201.16;;;3.03;87.76
46392;BME280;32098;49.448;7.904;2022-11-27T03:13:52;99196.84;;;3.02;87.25
46392;BME280;32098;49.448;7.904;2022-11-27T03:19:39;99189.00;;;3.10;87.38
46392;BME280;32098;49.448;7.904;2022-11-27T03:22:09;99182.41;;;3.14;87.63
46392;BME280;32098;49.448;7.904;2022-11-27T03:24:36;99184.41;;;3.20;86.63
46392;BME280;32098;49.448;7.904;2022-11-27T03:27:05;99179.97;;;3.21;85.99
46392;BME280;32098;49.448;7.904;2022-11-27T03:29:36;99184.06;;;3.15;86.59
46392;BME280;32098;49.448;7.904;2022-11-27T03:32:04;99175.13;;;3.16;86.34
46392;BME280;32098;49.448;7.904;2022-11-27T03:34:31;99179.63;;;3.24;86.50
46392;BME280;32098;49.448;7.904;2022-11-27T03:36:59;99176.63;;;3.11;85.59
46392;BME280;32098;49.448;7.904;2022-11-27T03:39:26;99171.69;;;3.16;85.88
46392;BME280;32098;49.448;7.904;2022-11-27T03:42:00;99172.63;;;3.07;86.38
46392;BME280;32098;49.448;7.904;2022-11-27T03:44:45;99172.63;;;3.07;85.45
46392;BME280;32098;49.448;7.904;2022-11-27T03:58:22;99163.56;;;2.75;88.09
46392;BME280;32098;49.448;7.904;2022-11-27T04:00:58;99154.94;;;2.65;88.20
46392;BME280;32098;49.448;7.904;2022-11-27T04:03:29;99159.31;;;2.57;88.06
46392;BME280;32098;49.448;7.904;2022-11-27T04:05:56;99157.03;;;2.62;88.58
46392;BME280;32098;49.448;7.904;2022-11-27T04:08:23;99153.13;;;2.66;88.51
46392;BME280;32098;49.448;7.904;2022-11-27T04:10:49;99153.31;;;2.72;87.59
46392;BME280;32098;49.448;7.904;2022-11-27T04:13:16;99150.31;;;2.67;88.15
46392;BME280;32098;49.448;7.904;2022-11-27T04:15:42;99150.94;;;2.61;88.55
46392;BME280;32098;49.448;7.904;2022-11-27T04:18:10;99140.44;;;2.69;88.27
46392;BME280;32098;49.448;7.904;2022-11-27T04:20:36;99147.75;;;2.75;88.34
46392;BME280;32098;49.448;7.904;2022-11-27T04:23:03;99137.13;;;2.67;88.09
46392;BME280;32098;49.448;7.904;2022-11-27T04:25:30;99134.50;;;2.67;87.96
46392;BME280;32098;49.448;7.904;2022-11-27T04:27:57;99139.78;;;2.67;88.00
46392;BME280;32098;49.448;7.904;2022-11-27T04:30:24;99131.56;;;2.70;87.77
46392;BME280;32098;49.448;7.904;2022-11-27T04:32:50;99126.94;;;2.72;87.37
46392;BME280;32098;49.448;7.904;2022-11-27T04:35:17;99122.41;;;2.57;87.11
46392;BME280;32098;49.448;7.904;2022-11-27T04:37:43;99124.91;;;2.58;87.71
46392;BME280;32098;49.448;7.904;2022-11-27T04:40:10;99126.03;;;2.56;87.79
46392;BME280;32098;49.448;7.904;2022-11-27T04:42:37;99119.94;;;2.55;87.82
46392;BME280;32098;49.448;7.904;2022-11-27T04:45:04;99119.22;;;2.45;87.76
46392;BME280;32098;49.448;7.904;2022-11-27T04:47:30;99122.41;;;2.31;88.53
46392;BME280;32098;49.448;7.904;2022-11-27T04:49:57;99131.00;;;2.33;88.66
46392;BME280;32098;49.448;7.904;2022-11-27T04:52:23;99131.22;;;2.40;89.06
46392;BME280;32098;49.448;7.904;2022-11-27T04:54:50;99120.50;;;2.41;88.84
46392;BME280;32098;49.448;7.904;2022-11-27T04:57:23;99131.25;;;2.22;88.96
46392;BME280;32098;49.448;7.904;2022-11-27T04:59:50;99125.31;;;2.20;89.40
46392;BME280;32098;49.448;7.904;2022-11-27T05:02:16;99119.94;;;2.30;89.48
46392;BME280;32098;49.448;7.904;2022-11-27T05:04:43;99132.66;;;2.34;89.33
46392;BME280;32098;49.448;7.904;2022-11-27T05:07:10;99129.94;;;2.26;89.67
46392;BME280;32098;49.448;7.904;2022-11-27T05:09:37;99131.31;;;2.30;89.33
46392;BME280;32098;49.448;7.904;2022-11-27T05:12:03;99128.94;;;2.45;89.67
46392;BME280;32098;49.448;7.904;2022-11-27T05:14:30;99125.00;;;2.49;89.15
46392;BME280;32098;49.448;7.904;2022-11-27T05:16:57;99133.78;;;2.57;89.16
46392;BME280;32098;49.448;7.904;2022-11-27T05:19:26;99127.53;;;2.58;87.72
46392;BME280;32098;49.448;7.904;2022-11-27T05:21:55;99117.97;;;2.57;87.73
46392;BME280;32098;49.448;7.904;2022-11-27T05:24:24;99116.47;;;2.55;87.49
46392;BME280;32098;49.448;7.904;2022-11-27T05:26:51;99119.28;;;2.61;87.08
46392;BME280;32098;49.448;7.904;2022-11-27T05:29:18;99127.53;;;2.58;87.75
46392;BME280;32098;49.448;7.904;2022-11-27T05:31:45;99133.13;;;2.55;87.21
46392;BME280;32098;49.448;7.904;2022-11-27T05:34:13;99139.00;;;2.49;87.55
46392;BME280;32098;49.448;7.904;2022-11-27T05:36:40;99130.78;;;2.52;88.12
46392;BME280;32098;49.448;7.904;2022-11-27T05:39:08;99131.88;;;2.67;87.62
46392;BME280;32098;49.448;7.904;2022-11-27T05:41:36;99116.88;;;2.68;87.72
46392;BME280;32098;49.448;7.904;2022-11-27T05:44:05;99118.19;;;2.72;87.57
46392;BME280;32098;49.448;7.904;2022-11-27T05:46:32;99110.28;;;2.72;86.79
46392;BME280;32098;49.448;7.904;2022-11-27T05:48:58;99101.09;;;2.76;85.86
46392;BME280;32098;49.448;7.904;2022-11-27T05:51:25;99101.72;;;2.70;84.59
46392;BME280;32098;49.448;7.904;2022-11-27T05:53:51;99103.81;;;2.58;84.98
46392;BME280;32098;49.448;7.904;2022-11-27T05:56:18;99101.19;;;2.66;85.71
46392;BME280;32098;49.448;7.904;2022-11-27T05:58:46;99072.38;;;2.39;85.76
46392;BME280;32098;49.448;7.904;2022-11-27T06:01:14;99084.81;;;2.55;85.11
46392;BME280;32098;49.448;7.904;2022-11-27T06:03:41;99095.91;;;2.58;85.74
46392;BME280;32098;49.448;7.904;2022-11-27T06:06:11;99088.59;;;2.52;86.04
46392;BME280;32098;49.448;7.904;2022-11-27T06:08:39;99100.28;;;2.50;86.62
46392;BME280;32098;49.448;7.904;2022-11-27T06:11:07;99081.66;;;2.43;87.23
46392;BME280;32098;49.448;7.904;2022-11-27T06:13:35;99089.94;;;2.56;86.81
46392;BME280;32098;49.448;7.904;2022-11-27T06:16:13;99097.00;;;2.48;86.05
46392;BME280;32098;49.448;7.904;2022-11-27T06:18:40;99102.94;;;2.50;87.07
46392;BME280;32098;49.448;7.904;2022-11-27T06:21:08;99093.25;;;2.58;87.58
46392;BME280;32098;49.448;7.904;2022-11-27T06:23:35;99090.47;;;2.60;86.96
46392;BME280;32098;49.448;7.904;2022-11-27T06:26:12;99089.31;;;2.62;86.52
46392;BME280;32098;49.448;7.904;2022-11-27T06:28:39;99090.94;;;2.55;86.73
46392;BME280;32098;49.448;7.904;2022-11-27T06:31:11;99088.69;;;2.68;86.08
46392;BME280;32098;49.448;7.904;2022-11-27T06:33:43;99072.88;;;2.68;86.32
46392;BME280;32098;49.448;7.904;2022-11-27T06:36:10;99073.81;;;2.59;85.96
46392;BME280;32098;49.448;7.904;2022-11-27T06:38:36;99064.84;;;2.44;85.83
46392;BME280;32098;49.448;7.904;2022-11-27T06:41:09;99050.91;;;2.26;86.58
46392;BME280;32098;49.448;7.904;2022-11-27T06:43:36;99038.41;;;2.28;86.50
46392;BME280;32098;49.448;7.904;2022-11-27T06:46:04;99040.56;;;2.33;86.98
46392;BME280;32098;49.448;7.904;2022-11-27T06:48:32;99033.28;;;2.27;87.38
46392;BME280;32098;49.448;7.904;2022-11-27T06:51:00;98997.16;;;2.11;86.88
46392;BME280;32098;49.448;7.904;2022-11-27T06:53:28;99041.31;;;2.17;87.40
46392;BME280;32098;49.448;7.904;2022-11-27T06:55:55;99053.81;;;2.15;87.02
46392;BME280;32098;49.448;7.904;2022-11-27T06:58:22;99068.28;;;2.11;87.61
46392;BME280;32098;49.448;7.904;2022-11-27T07:00:57;99059.44;;;2.20;87.08
46392;BME280;32098;49.448;7.904;2022-11-27T07:03:25;99052.50;;;2.19;87.50
46392;BME280;32098;49.448;7.904;2022-11-27T07:05:52;99054.13;;;2.12;87.25
46392;BME280;32098;49.448;7.904;2022-11-27T07:08:19;99041.59;;;2.14;87.32
46392;BME280;32098;49.448;7.904;2022-11-27T07:10:46;99033.03;;;2.12;86.61
46392;BME280;32098;49.448;7.904;2022-11-27T07:13:12;99024.34;;;2.19;86.39
46392;BME280;32098;49.448;7.904;2022-11-27T07:15:39;99029.66;;;2.28;86.57
46392;BME280;32098;49.448;7.904;2022-11-27T07:18:05;99019.97;;;2.28;87.30
46392;BME280;32098;49.448;7.904;2022-11-27T07:20:32;99011.00;;;2.21;86.46
46392;BME280;32098;49.448;7.904;2022-11-27T07:22:58;99008.72;;;2.18;86.58
46392;BME280;32098;49.448;7.904;2022-11-27T07:25:31;99003.56;;;2.16;86.55
46392;BME280;32098;49.448;7.904;2022-11-27T07:27:57;99002.06;;;2.06;86.56
46392;BME280;32098;49.448;7.904;2022-11-27T07:30:24;99009.63;;;2.01;87.95
46392;BME280;32098;49.448;7.904;2022-11-27T07:32:50;99016.63;;;2.18;87.85
46392;BME280;32098;49.448;7.904;2022-11-27T07:35:17;99020.59;;;2.22;87.59
46392;BME280;32098;49.448;7.904;2022-11-27T07:37:43;99026.50;;;2.24;87.00
46392;BME280;32098;49.448;7.904;2022-11-27T07:40:10;99023.88;;;2.24;86.93
46392;BME280;32098;49.448;7.904;2022-11-27T07:42:40;99028.56;;;2.38;86.43
46392;BME280;32098;49.448;7.904;2022-11-27T07:45:07;99027.63;;;2.47;85.65
46392;BME280;32098;49.448;7.904;2022-11-27T07:47:34;99025.59;;;2.41;85.81
46392;BME280;32098;49.448;7.904;2022-11-27T07:50:00;99016.72;;;2.42;86.21
46392;BME280;32098;49.448;7.904;2022-11-27T07:52:27;99008.66;;;2.44;86.91
46392;BME280;32098;49.448;7.904;2022-11-27T07:54:53;99006.81;;;2.36;86.17
46392;BME280;32098;49.448;7.904;2022-11-27T07:57:20;99012.41;;;2.41;86.38
46392;BME280;32098;49.448;7.904;2022-11-27T07:59:46;99004.88;;;2.46;85.84
46392;BME280;32098;49.448;7.904;2022-11-27T08:02:13;98953.25;;;2.28;85.77
46392;BME280;32098;49.448;7.904;2022-11-27T08:04:40;98983.31;;;2.59;85.58
46392;BME280;32098;49.448;7.904;2022-11-27T08:07:07;98985.84;;;2.68;85.01
46392;BME280;32098;49.448;7.904;2022-11-27T08:09:33;98986.03;;;2.75;85.25
46392;BME280;32098;49.448;7.904;2022-11-27T08:12:00;98984.94;;;2.86;85.37
46392;BME280;32098;49.448;7.904;2022-11-27T08:14:26;98960.44;;;2.67;84.17
46392;BME280;32098;49.448;7.904;2022-11-27T08:16:53;98983.91;;;2.87;84.96
46392;BME280;32098;49.448;7.904;2022-11-27T08:19:21;98981.31;;;3.03;85.30
46392;BME280;32098;49.448;7.904;2022-11-27T08:21:47;98984.66;;;3.21;84.56
46392;BME280;32098;49.448;7.904;2022-11-27T08:24:14;98983.97;;;3.27;82.56
46392;BME280;32098;49.448;7.904;2022-11-27T08:26:40;99000.97;;;3.32;82.69
46392;BME280;32098;49.448;7.904;2022-11-27T08:29:10;98997.50;;;3.32;82.37
46392;BME280;32098;49.448;7.904;2022-11-27T08:31:37;99009.72;;;3.33;81.95
46392;BME280;32098;49.448;7.904;2022-11-27T08:34:03;99007.09;;;3.41;82.10
46392;BME280;32098;49.448;7.904;2022-11-27T08:36:31;99019.28;;;3.42;82.30
46392;BME280;32098;49.448;7.904;2022-11-27T08:38:57;99019.47;;;3.49;82.11
46392;BME280;32098;49.448;7.904;2022-11-27T08:41:24;99012.69;;;3.54;82.59
46392;BME280;32098;49.448;7.904;2022-11-27T08:43:50;99008.22;;;3.55;81.90
46392;BME280;32098;49.448;7.904;2022-11-27T08:46:17;99007.72;;;3.59;82.18
46392;BME280;32098;49.448;7.904;2022-11-27T08:48:44;99006.25;;;3.65;82.41
46392;BME280;32098;49.448;7.904;2022-11-27T08:51:13;98996.34;;;3.75;81.49
46392;BME280;32098;49.448;7.904;2022-11-27T08:53:41;98983.13;;;3.75;80.94
46392;BME280;32098;49.448;7.904;2022-11-27T08:56:19;98977.38;;;3.55;80.59
46392;BME280;32098;49.448;7.904;2022-11-27T08:58:47;98965.97;;;3.55;81.67
46392;BME280;32098;49.448;7.904;2022-11-27T09:01:17;98967.78;;;3.70;81.34
46392;BME280;32098;49.448;7.904;2022-11-27T09:03:44;98972.75;;;3.65;81.45
46392;BME280;32098;49.448;7.904;2022-11-27T09:06:13;98969.44;;;3.71;81.38
46392;BME280;32098;49.448;7.904;2022-11-27T09:08:42;98952.91;;;3.77;81.13
46392;BME280;32098;49.448;7.904;2022-11-27T09:11:09;98958.97;;;3.94;81.24
46392;BME280;32098;49.448;7.904;2022-11-27T09:13:37;98954.16;;;4.14;81.56
46392;BME280;32098;49.448;7.904;2022-11-27T09:16:11;98949.97;;;4.19;80.67
46392;BME280;32098;49.448;7.904;2022-11-27T09:18:37;98952.47;;;4.21;79.16
46392;BME280;32098;49.448;7.904;2022-11-27T09:21:09;98950.91;;;4.65;78.64
46392;BME280;32098;49.448;7.904;2022-11-27T09:23:36;98942.72;;;5.05;77.75
46392;BME280;32098;49.448;7.904;2022-11-27T09:26:09;98938.72;;;5.32;76.08
46392;BME280;32098;49.448;7.904;2022-11-27T09:28:36;98924.59;;;5.39;74.99
46392;BME280;32098;49.448;7.904;2022-11-27T09:31:05;98926.56;;;5.60;73.94
46392;BME280;32098;49.448;7.904;2022-11-27T09:33:33;98921.06;;;5.62;73.33
46392;BME280;32098;49.448;7.904;2022-11-27T09:36:09;98937.63;;;5.26;72.18
46392;BME280;32098;49.448;7.904;2022-11-27T09:38:36;98929.75;;;5.56;85.71
46392;BME280;32098;49.448;7.904;2022-11-27T09:43:41;98940.31;;;6.58;77.98
46392;BME280;32098;49.448;7.904;2022-11-27T09:46:13;98932.47;;;6.50;69.24
46392;BME280;32098;49.448;7.904;2022-11-27T09:48:45;98923.00;;;5.97;69.84
46392;BME280;32098;49.448;7.904;2022-11-27T09:51:55;98928.09;;;5.69;70.64
46392;BME280;32098;49.448;7.904;2022-11-27T09:54:46;98929.75;;;5.56;71.93
46392;BME280;32098;49.448;7.904;2022-11-27T09:57:16;98925.06;;;5.20;73.08
46392;BME280;32098;49.448;7.904;2022-11-27T09:59:51;98935.66;;;5.20;73.47
46392;BME280;32098;49.448;7.904;2022-11-27T10:02:46;98920.31;;;5.16;73.91
46392;BME280;32098;49.448;7.904;2022-11-27T10:05:22;98922.13;;;5.15;73.14
46392;BME280;32098;49.448;7.904;2022-11-27T10:11:06;98919.44;;;4.78;73.78
46392;BME280;32098;49.448;7.904;2022-11-27T10:14:04;98915.75;;;4.79;74.15
46392;BME280;32098;49.448;7.904;2022-11-27T10:16:40;98894.19;;;4.90;74.48
46392;BME280;32098;49.448;7.904;2022-11-27T10:21:56;98883.34;;;5.22;74.21
46392;BME280;32098;49.448;7.904;2022-11-27T10:24:36;98865.13;;;5.27;72.95
46392;BME280;32098;49.448;7.904;2022-11-27T10:27:26;98857.03;;;5.44;73.48
46392;BME280;32098;49.448;7.904;2022-11-27T10:29:55;98852.09;;;5.70;72.29
46392;BME280;32098;49.448;7.904;2022-11-27T10:32:29;98840.78;;;5.76;70.14
46392;BME280;32098;49.448;7.904;2022-11-27T10:35:19;98830.72;;;5.86;70.01
46392;BME280;32098;49.448;7.904;2022-11-27T10:38:01;98834.16;;;5.72;70.19
46392;BME280;32098;49.448;7.904;2022-11-27T10:40:39;98822.38;;;5.74;69.86
46392;BME280;32098;49.448;7.904;2022-11-27T10:43:22;98818.47;;;5.56;69.72
46392;BME280;32098;49.448;7.904;2022-11-27T10:46:06;98821.22;;;5.62;70.72
46392;BME280;32098;49.448;7.904;2022-11-27T10:48:34;98824.41;;;5.72;70.08
46392;BME280;32098;49.448;7.904;2022-11-27T10:51:01;98829.41;;;5.82;69.77
46392;BME280;32098;49.448;7.904;2022-11-27T10:53:33;98822.38;;;5.74;69.55
46392;BME280;32098;49.448;7.904;2022-11-27T11:01:12;98820.81;;;6.09;70.52
46392;BME280;32098;49.448;7.904;2022-11-27T11:03:39;98817.28;;;6.23;68.65
46392;BME280;32098;49.448;7.904;2022-11-27T11:06:19;98815.03;;;6.41;68.86
46392;BME280;32098;49.448;7.904;2022-11-27T11:09:13;98803.28;;;6.50;66.67
46392;BME280;32098;49.448;7.904;2022-11-27T11:11:40;98806.94;;;6.49;66.41
46392;BME280;32098;49.448;7.904;2022-11-27T11:14:17;98788.94;;;6.45;66.83
46392;BME280;32098;49.448;7.904;2022-11-27T11:16:45;98786.47;;;6.43;65.56
46392;BME280;32098;49.448;7.904;2022-11-27T11:19:29;98778.00;;;6.54;66.65
46392;BME280;32098;49.448;7.904;2022-11-27T11:21:57;98768.03;;;6.56;67.17
46392;BME280;32098;49.448;7.904;2022-11-27T11:24:28;98762.09;;;6.54;65.69
46392;BME280;32098;49.448;7.904;2022-11-27T11:29:36;98758.56;;;6.47;66.17
46392;BME280;32098;49.448;7.904;2022-11-27T11:32:26;98764.09;;;6.52;65.44
46392;BME280;32098;49.448;7.904;2022-11-27T11:34:56;98758.31;;;6.42;65.12
46392;BME280;32098;49.448;7.904;2022-11-27T11:37:35;98752.00;;;6.43;65.90
46392;BME280;32098;49.448;7.904;2022-11-27T11:42:52;98732.34;;;6.59;65.51
46392;BME280;32098;49.448;7.904;2022-11-27T11:45:20;98725.88;;;6.68;65.23
46392;BME280;32098;49.448;7.904;2022-11-27T11:47:53;98731.47;;;6.80;64.77
46392;BME280;32098;49.448;7.904;2022-11-27T11:53:32;98724.81;;;6.90;63.84
46392;BME280;32098;49.448;7.904;2022-11-27T11:58:58;98723.31;;;7.09;64.64
46392;BME280;32098;49.448;7.904;2022-11-27T12:01:39;98725.75;;;7.10;63.00
46392;BME280;32098;49.448;7.904;2022-11-27T12:15:30;98719.16;;;7.27;60.85
46392;BME280;32098;49.448;7.904;2022-11-27T12:21:13;98707.34;;;7.37;61.76
46392;BME280;32098;49.448;7.904;2022-11-27T12:23:55;98693.84;;;7.32;60.73
46392;BME280;32098;49.448;7.904;2022-11-27T12:26:33;98692.72;;;7.13;60.66
46392;BME280;32098;49.448;7.904;2022-11-27T12:42:49;98686.00;;;7.17;66.01
46392;BME280;32098;49.448;7.904;2022-11-27T12:45:24;98693.97;;;7.17;66.83
46392;BME280;32098;49.448;7.904;2022-11-27T12:47:57;98682.16;;;7.19;67.17
46392;BME280;32098;49.448;7.904;2022-11-27T12:50:43;98680.50;;;7.25;67.17
46392;BME280;32098;49.448;7.904;2022-11-27T12:53:40;98676.84;;;7.26;66.96
46392;BME280;32098;49.448;7.904;2022-11-27T12:56:14;98662.94;;;7.24;67.53
46392;BME280;32098;49.448;7.904;2022-11-27T12:58:48;98661.50;;;7.21;67.04
46392;BME280;32098;49.448;7.904;2022-11-27T13:01:22;98665.00;;;7.22;67.31
46392;BME280;32098;49.448;7.904;2022-11-27T13:09:59;98646.06;;;7.04;67.78
46392;BME280;32098;49.448;7.904;2022-11-27T13:12:34;98633.72;;;6.90;67.85
46392;BME280;32098;49.448;7.904;2022-11-27T13:15:07;98647.63;;;6.92;67.21
46392;BME280;32098;49.448;7.904;2022-11-27T13:17:41;98643.94;;;6.86;68.20
46392;BME280;32098;49.448;7.904;2022-11-27T13:20:21;98654.19;;;6.96;68.77
46392;BME280;32098;49.448;7.904;2022-11-27T13:22:49;98658.50;;;6.97;68.91
46392;BME280;32098;49.448;7.904;2022-11-27T13:25:16;98658.31;;;7.05;69.33
46392;BME280;32098;49.448;7.904;2022-11-27T13:27:45;98652.34;;;6.96;70.13
46392;BME280;32098;49.448;7.904;2022-11-27T13:30:29;98633.09;;;6.88;69.61
46392;BME280;32098;49.448;7.904;2022-11-27T13:32:58;98627.31;;;6.78;68.66
46392;BME280;32098;49.448;7.904;2022-11-27T13:35:36;98616.47;;;6.73;68.89
46392;BME280;32098;49.448;7.904;2022-11-27T13:40:56;98592.47;;;6.53;67.89
46392;BME280;32098;49.448;7.904;2022-11-27T13:43:41;98579.31;;;6.38;66.89
46392;BME280;32098;49.448;7.904;2022-11-27T13:46:22;98579.97;;;6.47;67.36
46392;BME280;32098;49.448;7.904;2022-11-27T13:48:58;98573.44;;;6.49;68.07
46392;BME280;32098;49.448;7.904;2022-11-27T13:51:32;98554.03;;;6.42;67.86
46392;BME280;32098;49.448;7.904;2022-11-27T13:54:10;98557.53;;;6.49;65.03
46392;BME280;32098;49.448;7.904;2022-11-27T13:56:38;98565.66;;;6.41;64.74
46392;BME280;32098;49.448;7.904;2022-11-27T14:04:19;98518.59;;;6.22;63.96
46392;BME280;32098;49.448;7.904;2022-11-27T14:06:51;98541.09;;;6.26;64.73
46392;BME280;32098;49.448;7.904;2022-11-27T14:09:40;98527.44;;;6.29;65.01
46392;BME280;32098;49.448;7.904;2022-11-27T14:14:41;98529.16;;;6.09;64.77
46392;BME280;32098;49.448;7.904;2022-11-27T14:17:34;98532.78;;;6.08;64.84
46392;BME280;32098;49.448;7.904;2022-11-27T14:20:20;98524.97;;;6.00;65.05
46392;BME280;32098;49.448;7.904;2022-11-27T14:22:53;98523.41;;;6.06;65.38
46392;BME280;32098;49.448;7.904;2022-11-27T14:25:39;98522.72;;;5.97;65.51
46392;BME280;32098;49.448;7.904;2022-11-27T14:28:19;98527.38;;;5.95;65.37
46392;BME280;32098;49.448;7.904;2022-11-27T14:30:51;98523.53;;;5.97;65.50
46392;BME280;32098;49.448;7.904;2022-11-27T14:33:21;98525.81;;;6.00;65.66
46392;BME280;32098;49.448;7.904;2022-11-27T14:35:54;98519.44;;;5.95;65.41
46392;BME280;32098;49.448;7.904;2022-11-27T14:38:22;98507.34;;;5.86;64.69
46392;BME280;32098;49.448;7.904;2022-11-27T14:40:51;98508.00;;;5.94;64.66
46392;BME280;32098;49.448;7.904;2022-11-27T14:43:22;98508.06;;;6.01;64.09
46392;BME280;32098;49.448;7.904;2022-11-27T14:45:54;98501.50;;;5.97;64.80
46392;BME280;32098;49.448;7.904;2022-11-27T14:48:38;98496.84;;;5.99;63.83
46392;BME280;32098;49.448;7.904;2022-11-27T14:51:11;98491.44;;;5.86;64.58
46392;BME280;32098;49.448;7.904;2022-11-27T14:53:39;98492.06;;;5.88;64.66
46392;BME280;32098;49.448;7.904;2022-11-27T14:56:06;98484.00;;;5.75;63.93
46392;BME280;32098;49.448;7.904;2022-11-27T14:58:33;98490.09;;;5.69;64.05
46392;BME280;32098;49.448;7.904;2022-11-27T15:01:03;98478.31;;;5.71;64.13
46392;BME280;32098;49.448;7.904;2022-11-27T15:03:31;98492.91;;;5.67;63.57
46392;BME280;32098;49.448;7.904;2022-11-27T15:06:03;98483.59;;;5.71;64.30
46392;BME280;32098;49.448;7.904;2022-11-27T15:08:34;98502.06;;;5.86;64.17